sensor_id;sensor_type;location;lat;lon;timestamp;pressure;altitude;pressure_sealevel;temperature;humidity
16525;BME280;8375;33.594;-117.718;2023-07-20T00:00:21;100086.19;;;36.76;26.83
16525;BME280;8375;33.594;-117.718;2023-07-20T00:02:50;100085.94;;;36.58;27.53
16525;BME280;8375;33.594;-117.718;2023-07-20T00:05:19;100080.75;;;36.42;27.75
16525;BME280;8375;33.594;-117.718;2023-07-20T00:07:53;100082.78;;;36.18;28.60
16525;BME280;8375;33.594;-117.718;2023-07-20T00:10:21;100087.34;;;35.98;29.28
16525;BME280;8375;33.594;-117.718;2023-07-20T00:12:50;100085.06;;;35.67;29.96
16525;BME280;8375;33.594;-117.718;2023-07-20T00:15:19;100079.59;;;35.53;30.65
16525;BME280;8375;33.594;-117.718;2023-07-20T00:17:48;100089.00;;;35.31;30.93
16525;BME280;8375;33.594;-117.718;2023-07-20T00:20:17;100082.31;;;34.99;31.71
16525;BME280;8375;33.594;-117.718;2023-07-20T00:22:46;100084.56;;;34.87;31.90
16525;BME280;8375;33.594;-117.718;2023-07-20T00:25:16;100088.09;;;34.82;31.95
16525;BME280;8375;33.594;-117.718;2023-07-20T00:27:45;100081.53;;;34.64;32.47
16525;BME280;8375;33.594;-117.718;2023-07-20T00:30:14;100074.88;;;34.56;31.98
16525;BME280;8375;33.594;-117.718;2023-07-20T00:32:43;100079.50;;;34.50;32.61
16525;BME280;8375;33.594;-117.718;2023-07-20T00:35:12;100074.38;;;34.44;32.44
16525;BME280;8375;33.594;-117.718;2023-07-20T00:37:40;100079.56;;;34.35;32.87
16525;BME280;8375;33.594;-117.718;2023-07-20T00:40:09;100072.91;;;34.27;32.43
16525;BME280;8375;33.594;-117.718;2023-07-20T00:42:40;100071.41;;;34.11;32.43
16525;BME280;8375;33.594;-117.718;2023-07-20T00:45:09;100069.84;;;33.99;32.50
16525;BME280;8375;33.594;-117.718;2023-07-20T00:47:37;100074.72;;;33.97;33.23
16525;BME280;8375;33.594;-117.718;2023-07-20T00:50:07;100062.38;;;33.86;33.30
16525;BME280;8375;33.594;-117.718;2023-07-20T00:52:38;100068.78;;;34.00;33.02
16525;BME280;8375;33.594;-117.718;2023-07-20T00:55:08;100064.97;;;34.06;32.84
16525;BME280;8375;33.594;-117.718;2023-07-20T00:57:39;100069.22;;;34.13;32.68
16525;BME280;8375;33.594;-117.718;2023-07-20T01:00:09;100061.09;;;34.23;32.32
16525;BME280;8375;33.594;-117.718;2023-07-20T01:02:37;100067.47;;;34.32;32.78
16525;BME280;8375;33.594;-117.718;2023-07-20T01:05:07;100061.88;;;34.23;32.76
16525;BME280;8375;33.594;-117.718;2023-07-20T01:07:41;100063.09;;;34.02;32.76
16525;BME280;8375;33.594;-117.718;2023-07-20T01:10:14;100057.81;;;33.76;33.00
16525;BME280;8375;33.594;-117.718;2023-07-20T01:12:48;100062.28;;;33.35;33.45
16525;BME280;8375;33.594;-117.718;2023-07-20T01:15:20;100069.06;;;33.17;34.07
16525;BME280;8375;33.594;-117.718;2023-07-20T01:17:48;100064.53;;;32.76;33.84
16525;BME280;8375;33.594;-117.718;2023-07-20T01:20:18;100067.97;;;32.15;33.41
16525;BME280;8375;33.594;-117.718;2023-07-20T01:26:17;100064.97;;;31.32;36.24
16525;BME280;8375;33.594;-117.718;2023-07-20T01:29:21;100064.16;;;30.94;35.27
16525;BME280;8375;33.594;-117.718;2023-07-20T01:31:53;100065.63;;;30.74;36.27
16525;BME280;8375;33.594;-117.718;2023-07-20T01:34:23;100068.78;;;30.66;35.96
16525;BME280;8375;33.594;-117.718;2023-07-20T01:36:53;100066.88;;;30.61;36.56
16525;BME280;8375;33.594;-117.718;2023-07-20T01:39:24;100062.91;;;30.69;36.15
16525;BME280;8375;33.594;-117.718;2023-07-20T01:41:53;100066.13;;;30.71;36.93
16525;BME280;8375;33.594;-117.718;2023-07-20T01:44:22;100070.75;;;30.48;36.87
16525;BME280;8375;33.594;-117.718;2023-07-20T01:46:52;100075.78;;;30.39;36.83
16525;BME280;8375;33.594;-117.718;2023-07-20T01:49:21;100068.28;;;30.14;37.23
16525;BME280;8375;33.594;-117.718;2023-07-20T01:51:49;100072.91;;;29.74;38.10
16525;BME280;8375;33.594;-117.718;2023-07-20T01:54:18;100073.84;;;29.63;38.62
16525;BME280;8375;33.594;-117.718;2023-07-20T01:56:47;100072.09;;;29.51;37.84
16525;BME280;8375;33.594;-117.718;2023-07-20T01:59:16;100071.13;;;29.40;37.76
16525;BME280;8375;33.594;-117.718;2023-07-20T02:01:45;100079.72;;;29.42;37.43
16525;BME280;8375;33.594;-117.718;2023-07-20T02:04:15;100078.28;;;29.35;37.44
16525;BME280;8375;33.594;-117.718;2023-07-20T02:06:44;100073.44;;;29.15;37.62
16525;BME280;8375;33.594;-117.718;2023-07-20T02:09:12;100074.41;;;29.25;37.89
16525;BME280;8375;33.594;-117.718;2023-07-20T02:11:41;100083.56;;;29.12;37.61
16525;BME280;8375;33.594;-117.718;2023-07-20T02:14:10;100085.72;;;29.16;37.97
16525;BME280;8375;33.594;-117.718;2023-07-20T02:16:38;100089.16;;;28.94;37.75
16525;BME280;8375;33.594;-117.718;2023-07-20T02:19:07;100094.91;;;28.57;37.96
16525;BME280;8375;33.594;-117.718;2023-07-20T02:21:37;100092.88;;;28.47;38.06
16525;BME280;8375;33.594;-117.718;2023-07-20T02:24:06;100095.34;;;28.36;38.48
16525;BME280;8375;33.594;-117.718;2023-07-20T02:26:35;100091.22;;;28.29;39.00
16525;BME280;8375;33.594;-117.718;2023-07-20T02:29:03;100099.13;;;28.11;39.40
16525;BME280;8375;33.594;-117.718;2023-07-20T02:31:32;100101.03;;;27.99;38.95
16525;BME280;8375;33.594;-117.718;2023-07-20T02:34:04;100094.44;;;28.02;39.08
16525;BME280;8375;33.594;-117.718;2023-07-20T02:36:32;100104.16;;;28.08;39.14
16525;BME280;8375;33.594;-117.718;2023-07-20T02:39:03;100102.91;;;27.99;39.34
16525;BME280;8375;33.594;-117.718;2023-07-20T02:41:33;100100.81;;;28.01;39.38
16525;BME280;8375;33.594;-117.718;2023-07-20T02:44:02;100108.00;;;28.00;39.53
16525;BME280;8375;33.594;-117.718;2023-07-20T02:46:31;100102.22;;;27.91;40.31
16525;BME280;8375;33.594;-117.718;2023-07-20T02:49:00;100109.56;;;27.84;40.46
16525;BME280;8375;33.594;-117.718;2023-07-20T02:51:29;100101.91;;;27.76;40.47
16525;BME280;8375;33.594;-117.718;2023-07-20T02:53:58;100101.34;;;27.62;40.94
16525;BME280;8375;33.594;-117.718;2023-07-20T02:56:29;100104.59;;;27.64;40.82
16525;BME280;8375;33.594;-117.718;2023-07-20T02:58:58;100107.38;;;27.57;40.99
16525;BME280;8375;33.594;-117.718;2023-07-20T03:01:26;100107.03;;;27.53;40.57
16525;BME280;8375;33.594;-117.718;2023-07-20T03:03:55;100104.47;;;27.47;40.87
16525;BME280;8375;33.594;-117.718;2023-07-20T03:06:24;100104.69;;;27.45;41.77
16525;BME280;8375;33.594;-117.718;2023-07-20T03:08:53;100111.53;;;27.41;42.42
16525;BME280;8375;33.594;-117.718;2023-07-20T03:11:21;100113.75;;;27.32;42.81
16525;BME280;8375;33.594;-117.718;2023-07-20T03:13:52;100110.84;;;27.22;42.62
16525;BME280;8375;33.594;-117.718;2023-07-20T03:16:21;100109.56;;;27.13;42.98
16525;BME280;8375;33.594;-117.718;2023-07-20T03:18:50;100111.88;;;27.09;43.56
16525;BME280;8375;33.594;-117.718;2023-07-20T03:21:18;100114.84;;;26.89;43.74
16525;BME280;8375;33.594;-117.718;2023-07-20T03:23:47;100110.16;;;26.72;44.26
16525;BME280;8375;33.594;-117.718;2023-07-20T03:26:16;100108.75;;;26.70;43.99
16525;BME280;8375;33.594;-117.718;2023-07-20T03:28:44;100111.88;;;26.67;44.33
16525;BME280;8375;33.594;-117.718;2023-07-20T03:31:15;100118.69;;;26.62;43.84
16525;BME280;8375;33.594;-117.718;2023-07-20T03:33:43;100117.25;;;26.48;42.54
16525;BME280;8375;33.594;-117.718;2023-07-20T03:36:12;100124.31;;;26.24;42.62
16525;BME280;8375;33.594;-117.718;2023-07-20T03:38:41;100122.31;;;26.19;42.84
16525;BME280;8375;33.594;-117.718;2023-07-20T03:41:09;100126.03;;;26.18;43.06
16525;BME280;8375;33.594;-117.718;2023-07-20T03:43:38;100126.06;;;26.11;43.56
16525;BME280;8375;33.594;-117.718;2023-07-20T03:46:07;100123.84;;;26.08;43.85
16525;BME280;8375;33.594;-117.718;2023-07-20T03:48:37;100132.66;;;26.09;43.97
16525;BME280;8375;33.594;-117.718;2023-07-20T03:51:06;100132.41;;;26.10;43.83
16525;BME280;8375;33.594;-117.718;2023-07-20T03:53:35;100127.09;;;26.10;44.40
16525;BME280;8375;33.594;-117.718;2023-07-20T03:56:04;100128.94;;;26.10;44.32
16525;BME280;8375;33.594;-117.718;2023-07-20T03:58:32;100132.41;;;26.10;44.38
16525;BME280;8375;33.594;-117.718;2023-07-20T04:01:01;100131.22;;;26.06;44.42
16525;BME280;8375;33.594;-117.718;2023-07-20T04:03:30;100133.16;;;25.99;44.34
16525;BME280;8375;33.594;-117.718;2023-07-20T04:06:00;100138.56;;;25.92;44.78
16525;BME280;8375;33.594;-117.718;2023-07-20T04:08:29;100139.81;;;25.89;45.07
16525;BME280;8375;33.594;-117.718;2023-07-20T04:10:57;100139.44;;;25.86;44.67
16525;BME280;8375;33.594;-117.718;2023-07-20T04:13:26;100143.56;;;25.82;44.70
16525;BME280;8375;33.594;-117.718;2023-07-20T04:15:55;100141.81;;;25.75;44.94
16525;BME280;8375;33.594;-117.718;2023-07-20T04:18:23;100147.56;;;25.72;45.41
16525;BME280;8375;33.594;-117.718;2023-07-20T04:20:52;100152.63;;;25.74;46.02
16525;BME280;8375;33.594;-117.718;2023-07-20T04:23:22;100157.50;;;25.77;47.02
16525;BME280;8375;33.594;-117.718;2023-07-20T04:25:51;100160.03;;;25.72;46.20
16525;BME280;8375;33.594;-117.718;2023-07-20T04:28:21;100163.72;;;25.71;47.42
16525;BME280;8375;33.594;-117.718;2023-07-20T04:30:51;100151.75;;;25.61;45.61
16525;BME280;8375;33.594;-117.718;2023-07-20T04:33:21;100154.69;;;25.53;45.75
16525;BME280;8375;33.594;-117.718;2023-07-20T04:35:51;100154.09;;;25.51;46.16
16525;BME280;8375;33.594;-117.718;2023-07-20T04:38:22;100153.47;;;25.49;47.03
16525;BME280;8375;33.594;-117.718;2023-07-20T04:40:50;100155.53;;;25.47;46.83
16525;BME280;8375;33.594;-117.718;2023-07-20T04:43:19;100155.13;;;25.50;47.13
16525;BME280;8375;33.594;-117.718;2023-07-20T04:45:48;100167.00;;;25.41;45.20
16525;BME280;8375;33.594;-117.718;2023-07-20T04:48:17;100165.22;;;25.34;44.37
16525;BME280;8375;33.594;-117.718;2023-07-20T04:50:46;100168.31;;;25.31;44.58
16525;BME280;8375;33.594;-117.718;2023-07-20T04:53:14;100170.22;;;25.24;44.70
16525;BME280;8375;33.594;-117.718;2023-07-20T04:55:50;100167.66;;;25.11;45.61
16525;BME280;8375;33.594;-117.718;2023-07-20T04:58:19;100174.66;;;25.05;46.46
16525;BME280;8375;33.594;-117.718;2023-07-20T05:00:49;100171.59;;;25.01;45.97
16525;BME280;8375;33.594;-117.718;2023-07-20T05:03:18;100178.59;;;24.96;46.83
16525;BME280;8375;33.594;-117.718;2023-07-20T05:05:47;100185.13;;;24.93;46.29
16525;BME280;8375;33.594;-117.718;2023-07-20T05:08:16;100183.13;;;24.88;45.58
16525;BME280;8375;33.594;-117.718;2023-07-20T05:10:45;100178.06;;;24.80;45.88
16525;BME280;8375;33.594;-117.718;2023-07-20T05:13:16;100185.19;;;24.80;45.92
16525;BME280;8375;33.594;-117.718;2023-07-20T05:15:45;100190.13;;;24.76;46.22
16525;BME280;8375;33.594;-117.718;2023-07-20T05:18:14;100187.91;;;24.73;46.50
16525;BME280;8375;33.594;-117.718;2023-07-20T05:20:47;100192.34;;;24.72;46.72
16525;BME280;8375;33.594;-117.718;2023-07-20T05:23:18;100194.41;;;24.70;46.77
16525;BME280;8375;33.594;-117.718;2023-07-20T05:25:48;100198.34;;;24.61;46.78
16525;BME280;8375;33.594;-117.718;2023-07-20T05:28:23;100200.00;;;24.55;47.17
16525;BME280;8375;33.594;-117.718;2023-07-20T05:30:52;100193.09;;;24.48;47.34
16525;BME280;8375;33.594;-117.718;2023-07-20T05:33:22;100195.13;;;24.45;47.49
16525;BME280;8375;33.594;-117.718;2023-07-20T05:35:50;100193.13;;;24.41;47.30
16525;BME280;8375;33.594;-117.718;2023-07-20T05:38:19;100194.94;;;24.40;48.12
16525;BME280;8375;33.594;-117.718;2023-07-20T05:40:48;100193.97;;;24.35;48.04
16525;BME280;8375;33.594;-117.718;2023-07-20T05:43:16;100207.41;;;24.33;48.09
16525;BME280;8375;33.594;-117.718;2023-07-20T05:45:47;100187.88;;;24.21;49.06
16525;BME280;8375;33.594;-117.718;2023-07-20T05:48:16;100192.78;;;24.17;49.37
16525;BME280;8375;33.594;-117.718;2023-07-20T05:50:45;100204.22;;;24.11;50.02
16525;BME280;8375;33.594;-117.718;2023-07-20T05:53:13;100204.63;;;23.94;50.29
16525;BME280;8375;33.594;-117.718;2023-07-20T05:55:42;100196.50;;;23.82;52.16
16525;BME280;8375;33.594;-117.718;2023-07-20T05:58:11;100205.25;;;23.69;53.70
16525;BME280;8375;33.594;-117.718;2023-07-20T06:00:39;100201.78;;;23.62;54.37
16525;BME280;8375;33.594;-117.718;2023-07-20T06:03:10;100201.59;;;23.57;54.93
16525;BME280;8375;33.594;-117.718;2023-07-20T06:05:39;100194.25;;;23.46;55.32
16525;BME280;8375;33.594;-117.718;2023-07-20T06:08:07;100201.59;;;23.37;55.69
16525;BME280;8375;33.594;-117.718;2023-07-20T06:10:36;100189.56;;;23.34;55.90
16525;BME280;8375;33.594;-117.718;2023-07-20T06:13:05;100196.88;;;23.32;56.07
16525;BME280;8375;33.594;-117.718;2023-07-20T06:15:34;100194.06;;;23.34;55.61
16525;BME280;8375;33.594;-117.718;2023-07-20T06:18:03;100185.28;;;23.33;55.90
16525;BME280;8375;33.594;-117.718;2023-07-20T06:20:33;100190.78;;;23.25;55.96
16525;BME280;8375;33.594;-117.718;2023-07-20T06:23:02;100192.16;;;23.14;56.27
16525;BME280;8375;33.594;-117.718;2023-07-20T06:25:31;100193.59;;;23.10;56.60
16525;BME280;8375;33.594;-117.718;2023-07-20T06:28:02;100192.53;;;23.04;57.03
16525;BME280;8375;33.594;-117.718;2023-07-20T06:30:34;100194.97;;;22.99;57.58
16525;BME280;8375;33.594;-117.718;2023-07-20T06:33:03;100199.22;;;22.86;59.54
16525;BME280;8375;33.594;-117.718;2023-07-20T06:35:34;100205.75;;;22.84;60.11
16525;BME280;8375;33.594;-117.718;2023-07-20T06:38:03;100203.91;;;22.84;60.79
16525;BME280;8375;33.594;-117.718;2023-07-20T06:40:31;100203.09;;;22.84;61.60
16525;BME280;8375;33.594;-117.718;2023-07-20T06:43:00;100192.69;;;22.82;62.43
16525;BME280;8375;33.594;-117.718;2023-07-20T06:45:29;100201.25;;;22.78;62.30
16525;BME280;8375;33.594;-117.718;2023-07-20T06:47:58;100201.81;;;22.73;63.24
16525;BME280;8375;33.594;-117.718;2023-07-20T06:50:27;100194.09;;;22.71;64.00
16525;BME280;8375;33.594;-117.718;2023-07-20T06:52:57;100193.88;;;22.66;65.04
16525;BME280;8375;33.594;-117.718;2023-07-20T06:55:26;100196.53;;;22.66;65.82
16525;BME280;8375;33.594;-117.718;2023-07-20T06:57:55;100195.91;;;22.64;66.33
16525;BME280;8375;33.594;-117.718;2023-07-20T07:00:24;100195.69;;;22.66;66.32
16525;BME280;8375;33.594;-117.718;2023-07-20T07:02:52;100194.28;;;22.63;66.53
16525;BME280;8375;33.594;-117.718;2023-07-20T07:05:21;100193.00;;;22.52;67.28
16525;BME280;8375;33.594;-117.718;2023-07-20T07:07:50;100189.13;;;22.48;67.74
16525;BME280;8375;33.594;-117.718;2023-07-20T07:10:20;100188.22;;;22.34;69.40
16525;BME280;8375;33.594;-117.718;2023-07-20T07:12:49;100193.69;;;22.33;69.61
16525;BME280;8375;33.594;-117.718;2023-07-20T07:15:18;100190.44;;;22.31;70.44
16525;BME280;8375;33.594;-117.718;2023-07-20T07:17:47;100191.66;;;22.28;70.99
16525;BME280;8375;33.594;-117.718;2023-07-20T07:20:16;100191.22;;;22.24;71.40
16525;BME280;8375;33.594;-117.718;2023-07-20T07:22:45;100180.00;;;22.22;71.63
16525;BME280;8375;33.594;-117.718;2023-07-20T07:25:14;100192.22;;;22.23;71.85
16525;BME280;8375;33.594;-117.718;2023-07-20T07:27:44;100189.97;;;22.20;72.37
16525;BME280;8375;33.594;-117.718;2023-07-20T07:30:14;100182.03;;;22.13;72.96
16525;BME280;8375;33.594;-117.718;2023-07-20T07:32:42;100191.91;;;22.05;73.69
16525;BME280;8375;33.594;-117.718;2023-07-20T07:35:11;100187.78;;;21.95;74.07
16525;BME280;8375;33.594;-117.718;2023-07-20T07:37:41;100189.63;;;21.95;74.44
16525;BME280;8375;33.594;-117.718;2023-07-20T07:40:10;100181.09;;;21.93;75.17
16525;BME280;8375;33.594;-117.718;2023-07-20T07:42:39;100187.38;;;21.92;75.17
16525;BME280;8375;33.594;-117.718;2023-07-20T07:45:10;100186.13;;;21.88;76.44
16525;BME280;8375;33.594;-117.718;2023-07-20T07:47:40;100179.16;;;21.80;77.57
16525;BME280;8375;33.594;-117.718;2023-07-20T07:50:10;100180.13;;;21.72;78.38
16525;BME280;8375;33.594;-117.718;2023-07-20T07:52:39;100175.00;;;21.64;79.07
16525;BME280;8375;33.594;-117.718;2023-07-20T07:55:08;100167.81;;;21.58;79.70
16525;BME280;8375;33.594;-117.718;2023-07-20T07:57:36;100176.41;;;21.45;80.90
16525;BME280;8375;33.594;-117.718;2023-07-20T08:00:06;100178.69;;;21.26;82.43
16525;BME280;8375;33.594;-117.718;2023-07-20T08:02:40;100180.63;;;21.17;83.10
16525;BME280;8375;33.594;-117.718;2023-07-20T08:05:09;100181.00;;;21.14;83.07
16525;BME280;8375;33.594;-117.718;2023-07-20T08:07:38;100177.94;;;21.10;83.51
16525;BME280;8375;33.594;-117.718;2023-07-20T08:10:08;100184.22;;;21.09;83.53
16525;BME280;8375;33.594;-117.718;2023-07-20T08:12:37;100175.31;;;21.10;84.07
16525;BME280;8375;33.594;-117.718;2023-07-20T08:15:06;100157.47;;;21.13;84.12
16525;BME280;8375;33.594;-117.718;2023-07-20T08:17:35;100158.16;;;21.21;83.52
16525;BME280;8375;33.594;-117.718;2023-07-20T08:20:07;100156.53;;;21.20;84.11
16525;BME280;8375;33.594;-117.718;2023-07-20T08:22:38;100162.06;;;21.25;84.38
16525;BME280;8375;33.594;-117.718;2023-07-20T08:25:07;100149.03;;;21.24;84.76
16525;BME280;8375;33.594;-117.718;2023-07-20T08:27:37;100154.94;;;21.26;84.82
16525;BME280;8375;33.594;-117.718;2023-07-20T08:30:06;100147.03;;;21.26;84.83
16525;BME280;8375;33.594;-117.718;2023-07-20T08:32:36;100145.38;;;21.25;85.83
16525;BME280;8375;33.594;-117.718;2023-07-20T08:35:07;100144.13;;;21.21;85.66
16525;BME280;8375;33.594;-117.718;2023-07-20T08:37:36;100147.16;;;21.18;86.25
16525;BME280;8375;33.594;-117.718;2023-07-20T08:40:05;100144.44;;;21.11;86.66
16525;BME280;8375;33.594;-117.718;2023-07-20T08:42:37;100153.56;;;21.08;87.05
16525;BME280;8375;33.594;-117.718;2023-07-20T08:45:07;100150.47;;;21.05;87.55
16525;BME280;8375;33.594;-117.718;2023-07-20T08:47:37;100155.94;;;21.03;87.77
16525;BME280;8375;33.594;-117.718;2023-07-20T08:50:08;100141.28;;;21.01;87.69
16525;BME280;8375;33.594;-117.718;2023-07-20T08:52:37;100145.56;;;21.02;87.27
16525;BME280;8375;33.594;-117.718;2023-07-20T08:55:07;100144.13;;;20.99;87.29
16525;BME280;8375;33.594;-117.718;2023-07-20T08:57:36;100146.53;;;20.94;87.52
16525;BME280;8375;33.594;-117.718;2023-07-20T09:00:08;100152.22;;;20.98;87.21
16525;BME280;8375;33.594;-117.718;2023-07-20T09:02:39;100163.78;;;20.96;87.60
16525;BME280;8375;33.594;-117.718;2023-07-20T09:05:10;100154.44;;;20.94;87.73
16525;BME280;8375;33.594;-117.718;2023-07-20T09:07:40;100153.56;;;20.87;88.76
16525;BME280;8375;33.594;-117.718;2023-07-20T09:10:09;100159.09;;;20.77;89.43
16525;BME280;8375;33.594;-117.718;2023-07-20T09:12:39;100159.75;;;20.64;89.92
16525;BME280;8375;33.594;-117.718;2023-07-20T09:15:09;100163.94;;;20.58;90.67
16525;BME280;8375;33.594;-117.718;2023-07-20T09:17:38;100154.59;;;20.56;90.57
16525;BME280;8375;33.594;-117.718;2023-07-20T09:20:10;100142.84;;;20.58;90.98
16525;BME280;8375;33.594;-117.718;2023-07-20T09:22:39;100144.84;;;20.56;90.92
16525;BME280;8375;33.594;-117.718;2023-07-20T09:25:10;100142.41;;;20.55;91.15
16525;BME280;8375;33.594;-117.718;2023-07-20T09:27:40;100140.16;;;20.51;91.53
16525;BME280;8375;33.594;-117.718;2023-07-20T09:30:10;100142.31;;;20.48;91.61
16525;BME280;8375;33.594;-117.718;2023-07-20T09:32:42;100139.06;;;20.46;91.68
16525;BME280;8375;33.594;-117.718;2023-07-20T09:35:16;100135.53;;;20.38;92.41
16525;BME280;8375;33.594;-117.718;2023-07-20T09:37:50;100139.53;;;20.34;93.01
16525;BME280;8375;33.594;-117.718;2023-07-20T09:40:20;100128.72;;;20.29;93.34
16525;BME280;8375;33.594;-117.718;2023-07-20T09:42:52;100131.72;;;20.26;93.40
16525;BME280;8375;33.594;-117.718;2023-07-20T09:45:29;100130.94;;;20.26;93.57
16525;BME280;8375;33.594;-117.718;2023-07-20T09:48:04;100133.47;;;20.19;93.52
16525;BME280;8375;33.594;-117.718;2023-07-20T09:50:34;100130.28;;;20.08;93.65
16525;BME280;8375;33.594;-117.718;2023-07-20T09:53:08;100132.47;;;20.05;94.10
16525;BME280;8375;33.594;-117.718;2023-07-20T09:55:37;100134.56;;;19.95;94.84
16525;BME280;8375;33.594;-117.718;2023-07-20T09:58:07;100138.56;;;19.90;95.72
16525;BME280;8375;33.594;-117.718;2023-07-20T10:00:37;100135.63;;;19.85;96.02
16525;BME280;8375;33.594;-117.718;2023-07-20T10:03:06;100139.25;;;19.84;96.02
16525;BME280;8375;33.594;-117.718;2023-07-20T10:05:39;100138.41;;;19.84;95.79
16525;BME280;8375;33.594;-117.718;2023-07-20T10:08:12;100122.81;;;19.82;95.63
16525;BME280;8375;33.594;-117.718;2023-07-20T10:10:42;100126.53;;;19.88;95.64
16525;BME280;8375;33.594;-117.718;2023-07-20T10:13:17;100131.47;;;19.91;95.73
16525;BME280;8375;33.594;-117.718;2023-07-20T10:15:48;100140.63;;;19.95;95.79
16525;BME280;8375;33.594;-117.718;2023-07-20T10:18:23;100139.38;;;19.91;95.92
16525;BME280;8375;33.594;-117.718;2023-07-20T10:20:57;100138.91;;;19.87;96.29
16525;BME280;8375;33.594;-117.718;2023-07-20T10:23:29;100130.53;;;19.84;96.32
16525;BME280;8375;33.594;-117.718;2023-07-20T10:25:59;100117.72;;;19.81;96.56
16525;BME280;8375;33.594;-117.718;2023-07-20T10:28:29;100114.81;;;19.75;97.17
16525;BME280;8375;33.594;-117.718;2023-07-20T10:30:58;100115.16;;;19.72;97.30
16525;BME280;8375;33.594;-117.718;2023-07-20T10:33:26;100114.81;;;19.75;97.81
16525;BME280;8375;33.594;-117.718;2023-07-20T10:36:00;100121.44;;;19.71;98.04
16525;BME280;8375;33.594;-117.718;2023-07-20T10:38:42;100114.88;;;19.67;98.47
16525;BME280;8375;33.594;-117.718;2023-07-20T10:41:18;100121.97;;;19.67;98.32
16525;BME280;8375;33.594;-117.718;2023-07-20T10:43:48;100115.44;;;19.62;98.27
16525;BME280;8375;33.594;-117.718;2023-07-20T10:46:34;100112.53;;;19.57;98.60
16525;BME280;8375;33.594;-117.718;2023-07-20T10:49:04;100102.34;;;19.54;98.29
16525;BME280;8375;33.594;-117.718;2023-07-20T10:51:41;100101.53;;;19.54;98.61
16525;BME280;8375;33.594;-117.718;2023-07-20T10:54:48;100098.44;;;19.50;98.39
16525;BME280;8375;33.594;-117.718;2023-07-20T10:57:29;100101.09;;;19.50;99.07
16525;BME280;8375;33.594;-117.718;2023-07-20T11:00:19;100106.00;;;19.53;99.83
16525;BME280;8375;33.594;-117.718;2023-07-20T11:02:49;100094.28;;;19.56;99.70
16525;BME280;8375;33.594;-117.718;2023-07-20T11:05:35;100103.16;;;19.55;98.93
16525;BME280;8375;33.594;-117.718;2023-07-20T11:08:09;100091.91;;;19.46;99.15
16525;BME280;8375;33.594;-117.718;2023-07-20T11:10:38;100091.63;;;19.41;98.44
16525;BME280;8375;33.594;-117.718;2023-07-20T11:13:20;100094.06;;;19.42;98.63
16525;BME280;8375;33.594;-117.718;2023-07-20T11:16:03;100083.09;;;19.39;99.06
16525;BME280;8375;33.594;-117.718;2023-07-20T11:18:34;100087.44;;;19.46;99.32
16525;BME280;8375;33.594;-117.718;2023-07-20T11:21:09;100076.47;;;19.43;99.68
16525;BME280;8375;33.594;-117.718;2023-07-20T11:23:40;100078.28;;;19.42;99.28
16525;BME280;8375;33.594;-117.718;2023-07-20T11:26:08;100076.63;;;19.41;99.22
16525;BME280;8375;33.594;-117.718;2023-07-20T11:28:38;100070.03;;;19.45;98.96
16525;BME280;8375;33.594;-117.718;2023-07-20T11:31:07;100068.75;;;19.41;98.52
16525;BME280;8375;33.594;-117.718;2023-07-20T11:33:36;100069.28;;;19.37;98.73
16525;BME280;8375;33.594;-117.718;2023-07-20T11:36:05;100061.41;;;19.37;99.46
16525;BME280;8375;33.594;-117.718;2023-07-20T11:38:34;100073.00;;;19.42;99.54
16525;BME280;8375;33.594;-117.718;2023-07-20T11:41:05;100071.00;;;19.44;100.00
16525;BME280;8375;33.594;-117.718;2023-07-20T11:43:33;100064.31;;;19.42;100.00
16525;BME280;8375;33.594;-117.718;2023-07-20T11:46:05;100068.94;;;19.40;100.00
16525;BME280;8375;33.594;-117.718;2023-07-20T11:48:34;100076.63;;;19.41;100.00
16525;BME280;8375;33.594;-117.718;2023-07-20T11:51:02;100086.38;;;19.41;100.00
16525;BME280;8375;33.594;-117.718;2023-07-20T11:53:31;100083.09;;;19.39;100.00
16525;BME280;8375;33.594;-117.718;2023-07-20T11:56:01;100082.25;;;19.38;100.00
16525;BME280;8375;33.594;-117.718;2023-07-20T11:58:31;100090.78;;;19.40;100.00
16525;BME280;8375;33.594;-117.718;2023-07-20T12:01:00;100092.00;;;19.38;100.00
16525;BME280;8375;33.594;-117.718;2023-07-20T12:03:30;100099.25;;;19.35;100.00
16525;BME280;8375;33.594;-117.718;2023-07-20T12:06:07;100105.50;;;19.34;100.00
16525;BME280;8375;33.594;-117.718;2023-07-20T12:08:38;100109.28;;;19.32;100.00
16525;BME280;8375;33.594;-117.718;2023-07-20T12:11:08;100106.66;;;19.32;100.00
16525;BME280;8375;33.594;-117.718;2023-07-20T12:13:40;100113.28;;;19.28;100.00
16525;BME280;8375;33.594;-117.718;2023-07-20T12:16:11;100104.28;;;19.22;100.00
16525;BME280;8375;33.594;-117.718;2023-07-20T12:18:41;100105.63;;;19.18;100.00
16525;BME280;8375;33.594;-117.718;2023-07-20T12:21:10;100119.25;;;19.22;100.00
16525;BME280;8375;33.594;-117.718;2023-07-20T12:23:39;100119.09;;;19.23;100.00
16525;BME280;8375;33.594;-117.718;2023-07-20T12:26:09;100126.34;;;19.21;100.00
16525;BME280;8375;33.594;-117.718;2023-07-20T12:28:42;100125.06;;;19.17;100.00
16525;BME280;8375;33.594;-117.718;2023-07-20T12:31:11;100133.09;;;19.15;100.00
16525;BME280;8375;33.594;-117.718;2023-07-20T12:33:40;100130.31;;;19.17;100.00
16525;BME280;8375;33.594;-117.718;2023-07-20T12:36:09;100130.03;;;19.12;100.00
16525;BME280;8375;33.594;-117.718;2023-07-20T12:38:38;100131.19;;;19.09;100.00
16525;BME280;8375;33.594;-117.718;2023-07-20T12:41:09;100126.63;;;19.03;100.00
16525;BME280;8375;33.594;-117.718;2023-07-20T12:43:39;100134.06;;;18.99;100.00
16525;BME280;8375;33.594;-117.718;2023-07-20T12:46:10;100130.25;;;18.94;100.00